createdAt,value
2022-12-01T00:03:09.133Z,46.20
2022-12-01T00:08:11.932Z,46.20
2022-12-01T00:13:15.447Z,46.20
2022-12-01T00:18:19.548Z,46.30
2022-12-01T00:23:22.622Z,46.10
2022-12-01T00:28:25.286Z,46.20
2022-12-01T00:33:29.298Z,46.50
2022-12-01T00:38:32.426Z,46.40
2022-12-01T00:43:35.110Z,46.30
2022-12-01T00:48:39.647Z,46.20
2022-12-01T00:53:42.406Z,46.20
2022-12-01T00:58:45.110Z,46.30
2022-12-01T01:03:49.270Z,46.20
2022-12-01T01:08:51.965Z,46.40
2022-12-01T01:13:54.679Z,46.30
2022-12-01T01:18:58.863Z,46.30
2022-12-01T01:24:01.530Z,46.20
2022-12-01T01:29:06.059Z,46.10
2022-12-01T01:34:10.109Z,46.30
2022-12-01T01:39:12.799Z,46.30
2022-12-01T01:44:34.413Z,46.30
2022-12-01T01:49:38.690Z,46.40
2022-12-01T01:54:43.392Z,46.30
2022-12-01T01:59:48.729Z,46.50
2022-12-01T02:04:56.076Z,46.50
2022-12-01T02:09:58.804Z,46.40
2022-12-01T02:15:07.551Z,46.50
2022-12-01T02:20:23.603Z,46.60
2022-12-01T02:25:34.513Z,46.50
2022-12-01T02:30:41.139Z,46.40
2022-12-01T02:35:47.255Z,46.60
2022-12-01T02:40:53.258Z,46.30
2022-12-01T02:46:00.375Z,46.20
2022-12-01T02:51:05.889Z,46.40
2022-12-01T02:56:11.310Z,46.40
2022-12-01T03:01:22.028Z,46.20
2022-12-01T03:06:29.691Z,46.20
2022-12-01T03:11:36.784Z,46.40
2022-12-01T03:16:44.185Z,46.20
2022-12-01T03:21:50.907Z,46.40
2022-12-01T03:26:56.894Z,46.40
2022-12-01T03:32:04.072Z,46.30
2022-12-01T03:37:09.237Z,46.30
2022-12-01T03:42:15.083Z,46.20
2022-12-01T03:47:20.889Z,46.30
2022-12-01T03:52:30.102Z,46.30
2022-12-01T03:57:35.755Z,46.30
2022-12-01T04:02:40.396Z,46.50
2022-12-01T04:07:43.242Z,46.10
2022-12-01T04:12:46.026Z,46.30
2022-12-01T04:17:50.089Z,46.30
2022-12-01T04:22:52.808Z,45.90
2022-12-01T04:27:55.528Z,46.40
2022-12-01T04:32:59.639Z,46.30
2022-12-01T04:38:02.358Z,46.10
2022-12-01T04:43:05.102Z,46.20
2022-12-01T04:48:09.226Z,46.20
2022-12-01T04:53:11.889Z,46.00
2022-12-01T04:58:14.658Z,45.40
2022-12-01T05:03:18.661Z,43.40
2022-12-01T05:08:21.353Z,43.30
2022-12-01T05:13:24.074Z,43.10
2022-12-01T05:18:28.144Z,42.90
2022-12-01T05:23:43.014Z,42.50
2022-12-01T05:28:45.767Z,42.40
2022-12-01T05:33:49.858Z,42.60
2022-12-01T05:38:52.688Z,42.40
2022-12-01T05:43:55.592Z,42.50
2022-12-01T05:49:00.721Z,42.60
2022-12-01T05:54:03.657Z,42.90
2022-12-01T05:59:06.340Z,43.10
2022-12-01T06:04:10.427Z,43.10
2022-12-01T06:09:13.462Z,43.50
2022-12-01T06:14:17.211Z,43.40
2022-12-01T06:19:21.344Z,43.40
2022-12-01T06:24:24.018Z,43.50
2022-12-01T06:29:26.819Z,43.60
2022-12-01T06:34:30.840Z,43.80
2022-12-01T06:39:33.519Z,43.90
2022-12-01T06:44:36.191Z,43.70
2022-12-01T06:49:40.308Z,44.00
2022-12-01T06:54:43.010Z,43.90
2022-12-01T06:59:45.940Z,44.00
2022-12-01T07:04:50.504Z,44.10
2022-12-01T07:10:04.064Z,44.00
2022-12-01T07:15:07.762Z,44.20
2022-12-01T07:20:12.778Z,44.20
2022-12-01T07:25:15.600Z,44.20
2022-12-01T07:30:18.734Z,44.30
2022-12-01T07:35:33.164Z,44.40
2022-12-01T07:40:35.890Z,44.40
2022-12-01T07:45:38.761Z,44.30
2022-12-01T07:50:43.883Z,44.20
2022-12-01T07:55:48.944Z,42.70
2022-12-01T08:00:52.633Z,42.10
2022-12-01T08:06:00.433Z,42.00
2022-12-01T08:11:04.297Z,43.10
2022-12-01T08:16:07.495Z,42.80
2022-12-01T08:21:13.317Z,42.10
2022-12-01T08:26:17.252Z,41.20
2022-12-01T08:31:21.423Z,41.40
2022-12-01T08:36:26.054Z,41.20
2022-12-01T08:41:28.914Z,41.10
2022-12-01T08:46:33.462Z,41.30
2022-12-01T08:51:40.125Z,41.60
2022-12-01T08:56:44.125Z,42.40
2022-12-01T09:01:57.464Z,42.10
2022-12-01T09:07:01.761Z,42.10
2022-12-01T09:12:04.686Z,41.60
2022-12-01T09:17:07.758Z,41.30
2022-12-01T09:22:12.067Z,41.20
2022-12-01T09:27:14.922Z,41.00
2022-12-01T09:32:17.654Z,41.00
2022-12-01T09:37:21.940Z,40.90
2022-12-01T09:42:36.025Z,41.00
2022-12-01T09:47:40.144Z,40.80
2022-12-01T09:52:45.337Z,40.70
2022-12-01T09:57:49.850Z,40.60
2022-12-01T10:02:54.510Z,40.60
2022-12-01T10:08:01.199Z,40.80
2022-12-01T10:13:04.125Z,40.70
2022-12-01T10:18:14.053Z,40.80
2022-12-01T10:23:32.145Z,40.70
2022-12-01T10:28:44.470Z,40.40
2022-12-01T10:33:51.091Z,40.60
2022-12-01T10:38:55.891Z,40.40
2022-12-01T10:44:00.861Z,40.30
2022-12-01T10:49:10.991Z,40.40
2022-12-01T10:54:15.059Z,40.40
2022-12-01T10:59:23.171Z,40.20
2022-12-01T11:04:30.621Z,40.30
2022-12-01T11:09:34.786Z,40.40
2022-12-01T11:14:42.068Z,40.40
2022-12-01T11:19:45.989Z,40.70
2022-12-01T11:24:59.294Z,41.10
2022-12-01T11:30:04.847Z,41.10
2022-12-01T11:35:17.064Z,41.30
2022-12-01T11:40:22.274Z,41.50
2022-12-01T11:45:27.926Z,41.30
2022-12-01T11:50:31.614Z,41.50
2022-12-01T11:55:35.677Z,41.90
2022-12-01T12:00:44.270Z,41.10
2022-12-01T12:06:11.668Z,40.60
2022-12-01T12:11:22.882Z,40.90
2022-12-01T12:16:31.985Z,40.70
2022-12-01T12:21:41.399Z,40.70
2022-12-01T12:26:52.900Z,40.60
2022-12-01T12:32:02.360Z,40.30
2022-12-01T12:37:11.342Z,40.60
2022-12-01T12:42:21.004Z,40.50
2022-12-01T12:47:31.971Z,40.50
2022-12-01T12:52:35.536Z,40.50
2022-12-01T12:57:41.944Z,40.60
2022-12-01T13:02:47.451Z,40.90
2022-12-01T13:07:55.118Z,40.50
2022-12-01T13:13:02.571Z,40.50
2022-12-01T13:18:13.517Z,40.40
2022-12-01T13:23:17.997Z,40.40
2022-12-01T13:28:23.998Z,40.50
2022-12-01T13:33:27.926Z,40.40
2022-12-01T13:38:31.888Z,40.60
2022-12-01T13:43:39.496Z,40.60
2022-12-01T13:48:52.180Z,40.40
2022-12-01T13:54:13.043Z,40.50
2022-12-01T13:59:37.653Z,40.50
2022-12-01T14:04:41.801Z,40.50
2022-12-01T14:09:49.001Z,40.50
2022-12-01T14:14:54.864Z,40.20
2022-12-01T14:20:08.195Z,40.40
2022-12-01T14:25:23.900Z,41.00
2022-12-01T14:30:53.005Z,40.90
2022-12-01T14:35:59.827Z,40.30
2022-12-01T14:41:08.023Z,40.40
2022-12-01T14:46:22.016Z,40.40
2022-12-01T14:51:27.818Z,40.50
2022-12-01T14:56:31.312Z,40.20
2022-12-01T15:01:35.893Z,40.60
2022-12-01T15:06:40.801Z,40.40
2022-12-01T15:11:52.086Z,40.70
2022-12-01T15:16:54.967Z,40.50
2022-12-01T15:21:59.470Z,40.80
2022-12-01T15:27:04.144Z,40.20
2022-12-01T15:32:08.471Z,40.60
2022-12-01T15:37:14.450Z,40.20
2022-12-01T15:42:34.058Z,40.40
2022-12-01T15:47:44.724Z,40.80
2022-12-01T15:52:51.024Z,40.40
2022-12-01T15:57:54.008Z,40.20
2022-12-01T16:02:58.256Z,40.20
2022-12-01T16:08:14.683Z,40.30
2022-12-01T16:13:35.943Z,40.20
2022-12-01T16:18:38.639Z,40.30
2022-12-01T16:23:42.842Z,40.40
2022-12-01T16:28:45.623Z,40.40
2022-12-01T16:33:48.662Z,40.10
2022-12-01T16:38:52.812Z,40.30
2022-12-01T16:44:26.557Z,40.10
2022-12-01T16:49:18.280Z,39.70
2022-12-01T16:54:22.858Z,39.80
2022-12-01T16:59:26.347Z,39.70
2022-12-01T17:04:29.043Z,40.00
2022-12-01T17:09:33.137Z,39.80
2022-12-01T17:14:36.814Z,41.20
2022-12-01T17:19:39.639Z,40.00
2022-12-01T17:24:48.172Z,40.30
2022-12-01T17:29:51.153Z,40.10
2022-12-01T17:34:53.855Z,40.40
2022-12-01T17:39:58.055Z,40.30
2022-12-01T17:45:01.056Z,40.70
2022-12-01T17:50:04.235Z,40.70
2022-12-01T17:55:08.888Z,40.80
2022-12-01T18:00:12.278Z,40.70
2022-12-01T18:05:15.792Z,40.90
2022-12-01T18:10:21.061Z,41.10
2022-12-01T18:15:35.816Z,41.20
2022-12-01T18:20:40.503Z,41.20
2022-12-01T18:25:44.605Z,41.20
2022-12-01T18:30:49.553Z,41.20
2022-12-01T18:35:52.418Z,41.30
2022-12-01T18:40:59.725Z,41.50
2022-12-01T18:46:14.888Z,41.40
2022-12-01T18:51:29.045Z,41.50
2022-12-01T18:56:33.730Z,41.60
2022-12-01T19:01:37.321Z,41.60
2022-12-01T19:06:41.677Z,41.60
2022-12-01T19:11:46.423Z,41.70
2022-12-01T19:16:51.117Z,41.50
2022-12-01T19:22:05.891Z,42.00
2022-12-01T19:27:09.914Z,41.80
2022-12-01T19:32:12.680Z,41.80
2022-12-01T19:37:15.733Z,42.00
2022-12-01T19:42:22.197Z,41.90
2022-12-01T19:47:26.287Z,41.90
2022-12-01T19:52:36.640Z,42.10
2022-12-01T19:57:40.706Z,42.20
2022-12-01T20:02:43.503Z,42.10
2022-12-01T20:07:47.593Z,42.10
2022-12-01T20:12:51.687Z,41.90
2022-12-01T20:17:54.440Z,42.10
2022-12-01T20:22:57.119Z,42.00
2022-12-01T20:28:01.196Z,42.00
2022-12-01T20:33:03.923Z,42.40
2022-12-01T20:38:06.747Z,42.20
2022-12-01T20:43:10.776Z,42.10
2022-12-01T20:48:13.650Z,42.20
2022-12-01T20:53:16.332Z,42.30
2022-12-01T20:58:20.724Z,42.50
2022-12-01T21:03:23.386Z,42.30
2022-12-01T21:08:26.151Z,42.40
2022-12-01T21:13:42.199Z,42.10
2022-12-01T21:18:49.774Z,42.00
2022-12-01T21:23:59.678Z,42.10
2022-12-01T21:29:11.005Z,42.40
2022-12-01T21:34:15.119Z,42.40
2022-12-01T21:39:20.555Z,42.30
2022-12-01T21:44:29.893Z,42.30
2022-12-01T21:49:34.412Z,42.40
2022-12-01T21:54:37.169Z,42.40
2022-12-01T21:59:42.514Z,42.50
2022-12-01T22:04:45.258Z,42.40
2022-12-01T22:09:48.282Z,42.40
2022-12-01T22:14:53.914Z,42.50
2022-12-01T22:19:57.972Z,42.20
2022-12-01T22:25:02.777Z,42.30
2022-12-01T22:30:17.622Z,42.30
2022-12-01T22:35:38.297Z,42.30
2022-12-01T22:40:43.099Z,42.20
2022-12-01T22:45:48.711Z,42.50
2022-12-01T22:50:52.029Z,42.30
2022-12-01T22:55:56.059Z,42.60
2022-12-01T23:01:02.085Z,42.60
2022-12-01T23:06:24.787Z,42.50
2022-12-01T23:11:27.505Z,42.60
2022-12-01T23:16:31.684Z,42.50
2022-12-01T23:21:34.383Z,42.40
2022-12-01T23:26:37.134Z,42.70
2022-12-01T23:31:41.914Z,42.60
2022-12-01T23:36:45.514Z,42.60
2022-12-01T23:41:49.403Z,42.40
2022-12-01T23:46:54.576Z,42.50
2022-12-01T23:52:01.816Z,42.50
2022-12-01T23:57:05.265Z,42.70
